createdAt,value
2022-12-31T00:01:36.659Z,100448.03
2022-12-31T00:04:57.967Z,100445.13
2022-12-31T00:08:19.674Z,100454.78
2022-12-31T00:11:41.529Z,100450.03
2022-12-31T00:15:04.396Z,100485.41
2022-12-31T00:18:26.962Z,100468.09
2022-12-31T00:21:48.822Z,100473.31
2022-12-31T00:25:11.247Z,100486.22
2022-12-31T00:28:33.277Z,100481.47
2022-12-31T00:31:56.124Z,100469.03
2022-12-31T00:35:18.047Z,100507.41
2022-12-31T00:38:40.419Z,100480.47
2022-12-31T00:42:02.649Z,100490.13
2022-12-31T00:45:24.142Z,100485.09
2022-12-31T00:48:47.528Z,100485.00
2022-12-31T00:52:09.201Z,100479.25
2022-12-31T00:55:31.927Z,100489.66
2022-12-31T00:58:53.732Z,100491.91
2022-12-31T01:02:15.543Z,100495.16
2022-12-31T01:05:39.561Z,100495.72
2022-12-31T01:09:01.087Z,100504.56
2022-12-31T01:12:23.033Z,100522.66
2022-12-31T01:15:44.753Z,100519.00
2022-12-31T01:19:09.310Z,100519.00
2022-12-31T01:22:32.240Z,100541.72
2022-12-31T01:25:54.043Z,100544.38
2022-12-31T01:29:16.996Z,100523.09
2022-12-31T01:32:38.667Z,100538.78
2022-12-31T01:36:03.473Z,100536.72
2022-12-31T01:39:26.292Z,100551.28
2022-12-31T01:42:55.166Z,100546.72
2022-12-31T01:46:28.197Z,100547.16
2022-12-31T01:49:53.476Z,100548.69
2022-12-31T01:53:17.544Z,100543.25
2022-12-31T01:56:44.229Z,100542.28
2022-12-31T02:00:07.802Z,100534.03
2022-12-31T02:03:30.785Z,100534.75
2022-12-31T02:06:57.268Z,100551.41
2022-12-31T02:10:19.106Z,100547.78
2022-12-31T02:13:42.122Z,100554.78
2022-12-31T02:17:11.390Z,100560.81
2022-12-31T02:21:19.457Z,100567.81
2022-12-31T02:25:15.457Z,100555.22
2022-12-31T02:29:06.389Z,100564.88
2022-12-31T02:32:38.205Z,100556.91
2022-12-31T02:36:04.040Z,100553.16
2022-12-31T02:39:25.913Z,100561.00
2022-12-31T02:42:53.295Z,100550.34
2022-12-31T02:46:28.003Z,100547.41
2022-12-31T02:50:02.218Z,100540.13
2022-12-31T02:53:42.986Z,100541.25
2022-12-31T02:57:12.810Z,100531.31
2022-12-31T03:00:59.627Z,100528.28
2022-12-31T03:04:36.272Z,100523.78
2022-12-31T03:07:59.215Z,100540.59
2022-12-31T03:11:34.766Z,100533.16
2022-12-31T03:14:56.365Z,100532.91
2022-12-31T03:18:39.911Z,100543.44
2022-12-31T03:22:18.773Z,100544.13
2022-12-31T03:25:41.788Z,100543.00
2022-12-31T03:29:04.263Z,100538.41
2022-12-31T03:32:25.541Z,100539.28
2022-12-31T03:35:48.856Z,100538.56
2022-12-31T03:39:10.739Z,100536.84
2022-12-31T03:42:33.932Z,100534.06
2022-12-31T03:45:58.667Z,100532.34
2022-12-31T03:49:21.164Z,100525.25
2022-12-31T03:52:42.942Z,100517.28
2022-12-31T03:56:05.000Z,100525.25
2022-12-31T03:59:27.779Z,100520.75
2022-12-31T04:02:50.050Z,100522.69
2022-12-31T04:06:11.559Z,100522.44
2022-12-31T04:09:33.356Z,100516.88
2022-12-31T04:12:54.832Z,100506.06
2022-12-31T04:16:17.537Z,100528.22
2022-12-31T04:19:39.178Z,100519.13
2022-12-31T04:23:00.459Z,100533.00
2022-12-31T04:26:22.223Z,100529.22
2022-12-31T04:29:43.546Z,100536.81
2022-12-31T04:33:06.078Z,100542.72
2022-12-31T04:36:28.219Z,100546.91
2022-12-31T04:39:49.758Z,100543.97
2022-12-31T04:43:11.456Z,100546.34
2022-12-31T04:46:34.707Z,100534.44
2022-12-31T04:49:57.905Z,100543.00
2022-12-31T04:53:19.751Z,100528.59
2022-12-31T04:56:41.545Z,100522.28
2022-12-31T05:00:03.918Z,100508.81
2022-12-31T05:03:27.394Z,100514.84
2022-12-31T05:06:50.399Z,100499.56
2022-12-31T05:10:12.172Z,100507.41
2022-12-31T05:13:33.996Z,100516.13
2022-12-31T05:16:56.022Z,100503.63
2022-12-31T05:20:17.814Z,100483.00
2022-12-31T05:23:40.811Z,100481.31
2022-12-31T05:27:02.667Z,100469.69
2022-12-31T05:30:24.884Z,100480.09
2022-12-31T05:33:46.594Z,100496.78
2022-12-31T05:37:08.064Z,100497.47
2022-12-31T05:40:32.236Z,100494.53
2022-12-31T05:43:54.162Z,100496.91
2022-12-31T05:47:16.795Z,100498.16
2022-12-31T05:50:38.287Z,100503.34
2022-12-31T05:54:00.135Z,100511.94
2022-12-31T05:57:23.033Z,100510.78
2022-12-31T06:00:46.101Z,100501.50
2022-12-31T06:04:07.533Z,100509.22
2022-12-31T06:07:29.275Z,100503.78
2022-12-31T06:10:50.960Z,100495.47
2022-12-31T06:14:14.560Z,100502.38
2022-12-31T06:17:36.247Z,100493.22
2022-12-31T06:20:59.053Z,100491.72
2022-12-31T06:24:20.686Z,100487.75
2022-12-31T06:27:42.424Z,100498.16
2022-12-31T06:31:07.590Z,100487.19
2022-12-31T06:34:29.317Z,100475.53
2022-12-31T06:37:52.615Z,100452.06
2022-12-31T06:41:15.822Z,100434.94
2022-12-31T06:44:37.401Z,100436.50
2022-12-31T06:47:59.968Z,100464.69
2022-12-31T06:51:22.935Z,100454.88
2022-12-31T06:54:45.401Z,100452.91
2022-12-31T06:58:07.819Z,100448.25
2022-12-31T07:01:38.240Z,100453.44
2022-12-31T07:05:10.979Z,100439.97
2022-12-31T07:08:42.734Z,100447.50
2022-12-31T07:12:13.393Z,100449.19
2022-12-31T07:15:48.206Z,100441.47
2022-12-31T07:19:21.615Z,100429.66
2022-12-31T07:22:45.928Z,100440.88
2022-12-31T07:26:17.159Z,100434.53
2022-12-31T07:29:52.544Z,100437.75
2022-12-31T07:33:26.312Z,100439.44
2022-12-31T07:37:02.440Z,100454.47
2022-12-31T07:40:37.687Z,100428.91
2022-12-31T07:44:08.806Z,100432.25
2022-12-31T07:47:30.922Z,100445.47
2022-12-31T07:50:54.786Z,100438.31
2022-12-31T07:54:16.463Z,100454.34
2022-12-31T07:57:44.362Z,100450.81
2022-12-31T08:01:06.968Z,100446.47
2022-12-31T08:04:33.639Z,100454.47
2022-12-31T08:08:01.541Z,100462.78
2022-12-31T08:11:33.649Z,100479.78
2022-12-31T08:14:57.393Z,100472.75
2022-12-31T08:18:19.313Z,100475.25
2022-12-31T08:21:50.000Z,100478.78
2022-12-31T08:25:23.680Z,100460.09
2022-12-31T08:28:58.935Z,100453.09
2022-12-31T08:32:25.003Z,100446.88
2022-12-31T08:35:57.661Z,100440.44
2022-12-31T08:39:32.055Z,100429.59
2022-12-31T08:43:07.679Z,100429.34
2022-12-31T08:46:34.603Z,100436.78
2022-12-31T08:49:58.485Z,100436.16
2022-12-31T08:53:20.852Z,100436.44
2022-12-31T08:56:50.717Z,100434.84
2022-12-31T09:00:15.145Z,100433.94
2022-12-31T09:03:54.338Z,100439.53
2022-12-31T09:07:22.917Z,100440.59
2022-12-31T09:10:52.786Z,100456.56
2022-12-31T09:14:24.759Z,100454.97
2022-12-31T09:17:48.094Z,100453.50
2022-12-31T09:21:11.784Z,100439.53
2022-12-31T09:24:35.505Z,100445.09
2022-12-31T09:28:09.287Z,100459.56
2022-12-31T09:31:37.435Z,100461.75
2022-12-31T09:35:07.480Z,100471.00
2022-12-31T09:38:33.295Z,100472.06
2022-12-31T09:42:19.371Z,100475.41
2022-12-31T09:46:01.073Z,100472.13
2022-12-31T09:49:55.409Z,100470.81
2022-12-31T09:53:32.811Z,100479.19
2022-12-31T09:57:15.256Z,100479.59
2022-12-31T10:00:42.715Z,100487.31
2022-12-31T10:04:46.710Z,100484.47
2022-12-31T10:08:17.369Z,100488.69
2022-12-31T10:11:58.904Z,100495.53
2022-12-31T10:15:41.507Z,100498.06
2022-12-31T10:19:32.582Z,100508.47
2022-12-31T10:23:27.401Z,100501.13
2022-12-31T10:26:58.776Z,100501.13
2022-12-31T10:30:23.034Z,100497.31
2022-12-31T10:33:56.244Z,100494.47
2022-12-31T10:37:19.387Z,100496.16
2022-12-31T10:41:07.124Z,100501.81
2022-12-31T10:45:03.659Z,100499.00
2022-12-31T10:49:03.426Z,100508.53
2022-12-31T10:53:13.955Z,100513.75
2022-12-31T10:57:07.866Z,100513.56
2022-12-31T11:00:31.875Z,100518.59
2022-12-31T11:04:34.859Z,100523.13
2022-12-31T11:08:12.141Z,100520.47
2022-12-31T11:11:46.056Z,100532.84
2022-12-31T11:15:39.492Z,100530.00
2022-12-31T11:19:08.232Z,100523.81
2022-12-31T11:22:44.649Z,100519.59
2022-12-31T11:26:19.692Z,100522.28
2022-12-31T11:29:56.013Z,100523.97
2022-12-31T11:33:34.076Z,100514.78
2022-12-31T11:37:19.405Z,100523.66
2022-12-31T11:40:44.485Z,100513.63
2022-12-31T11:44:19.310Z,100514.34
2022-12-31T11:48:28.975Z,100501.63
2022-12-31T11:51:53.220Z,100499.47
2022-12-31T11:55:27.277Z,100490.63
2022-12-31T11:58:52.162Z,100489.31
2022-12-31T12:02:26.118Z,100490.81
2022-12-31T12:05:47.813Z,100471.59
2022-12-31T12:09:15.919Z,100473.81
2022-12-31T12:12:40.961Z,100474.50
2022-12-31T12:16:07.395Z,100467.97
2022-12-31T12:19:33.248Z,100465.13
2022-12-31T12:22:58.344Z,100473.00
2022-12-31T12:26:28.367Z,100470.00
2022-12-31T12:29:50.125Z,100467.00
2022-12-31T12:33:18.541Z,100451.47
2022-12-31T12:36:48.076Z,100456.34
2022-12-31T12:40:21.919Z,100452.47
2022-12-31T12:43:43.374Z,100452.34
2022-12-31T12:47:07.620Z,100455.50
2022-12-31T12:50:40.268Z,100447.34
2022-12-31T12:54:12.858Z,100441.50
2022-12-31T12:57:45.374Z,100447.34
2022-12-31T13:01:17.036Z,100433.97
2022-12-31T13:04:52.561Z,100431.81
2022-12-31T13:08:28.236Z,100428.63
2022-12-31T13:12:07.685Z,100424.59
2022-12-31T13:15:35.145Z,100422.31
2022-12-31T13:19:04.089Z,100427.31
2022-12-31T13:22:31.166Z,100428.66
2022-12-31T13:26:05.124Z,100438.38
2022-12-31T13:29:31.736Z,100436.88
2022-12-31T13:33:00.411Z,100436.38
2022-12-31T13:36:24.722Z,100449.13
2022-12-31T13:39:48.097Z,100454.03
2022-12-31T13:43:17.770Z,100448.84
2022-12-31T13:46:47.784Z,100456.38
2022-12-31T13:50:18.408Z,100465.41
2022-12-31T13:53:48.724Z,100449.69
2022-12-31T13:57:19.571Z,100461.56
2022-12-31T14:00:45.866Z,100477.66
2022-12-31T14:04:16.788Z,100534.66
2022-12-31T14:07:45.910Z,100546.38
2022-12-31T14:11:19.738Z,100612.56
2022-12-31T14:14:50.835Z,100612.56
2022-12-31T14:18:20.413Z,100623.59
2022-12-31T14:21:48.502Z,100636.72
2022-12-31T14:25:21.009Z,100630.31
2022-12-31T14:28:48.647Z,100642.72
2022-12-31T14:32:55.398Z,100620.59
2022-12-31T14:36:37.610Z,100625.78
2022-12-31T14:40:10.358Z,100640.03
2022-12-31T14:43:53.978Z,100651.75
2022-12-31T14:47:28.171Z,100648.41
2022-12-31T14:50:50.278Z,100652.09
2022-12-31T14:54:29.128Z,100658.44
2022-12-31T14:58:26.469Z,100662.25
2022-12-31T15:01:34.330Z,100665.25
2022-12-31T15:05:12.548Z,100647.69
2022-12-31T15:08:50.331Z,100652.50
2022-12-31T15:12:43.116Z,100651.66
2022-12-31T15:16:23.474Z,100651.66
2022-12-31T15:20:16.646Z,100655.31
2022-12-31T15:23:42.233Z,100645.47
2022-12-31T15:27:06.300Z,100660.69
2022-12-31T15:30:36.476Z,100656.50
2022-12-31T15:34:02.371Z,100642.94
2022-12-31T15:37:33.504Z,100649.16
2022-12-31T15:40:55.569Z,100650.81
2022-12-31T15:44:24.626Z,100656.19
2022-12-31T15:47:49.834Z,100659.69
2022-12-31T15:51:18.407Z,100659.00
2022-12-31T15:54:43.834Z,100669.72
2022-12-31T15:58:08.165Z,100662.53
2022-12-31T16:01:33.782Z,100666.03
2022-12-31T16:04:56.616Z,100664.03
2022-12-31T16:08:22.539Z,100655.88
2022-12-31T16:11:44.549Z,100645.81
2022-12-31T16:15:07.023Z,100639.47
2022-12-31T16:18:38.524Z,100651.72
2022-12-31T16:22:04.106Z,100649.72
2022-12-31T16:25:31.464Z,100659.25
2022-12-31T16:28:55.230Z,100657.44
2022-12-31T16:32:19.151Z,100655.44
2022-12-31T16:35:40.709Z,100658.94
2022-12-31T16:39:23.471Z,100663.31
2022-12-31T16:42:47.558Z,100656.13
2022-12-31T16:46:12.640Z,100662.97
2022-12-31T16:49:38.831Z,100655.78
2022-12-31T16:53:04.226Z,100659.00
2022-12-31T16:56:33.604Z,100648.28
2022-12-31T17:00:01.606Z,100654.16
2022-12-31T17:03:25.640Z,100654.69
2022-12-31T17:06:48.247Z,100641.09
2022-12-31T17:10:19.455Z,100650.53
2022-12-31T17:13:41.219Z,100650.06
2022-12-31T17:17:07.552Z,100643.38
2022-12-31T17:20:30.886Z,100642.91
2022-12-31T17:23:56.213Z,100652.13
2022-12-31T17:27:18.481Z,100646.28
2022-12-31T17:30:41.327Z,100659.38
2022-12-31T17:34:33.708Z,100661.72
2022-12-31T17:37:55.782Z,100657.72
2022-12-31T17:41:24.095Z,100657.22
2022-12-31T17:44:45.914Z,100664.78
2022-12-31T17:48:07.471Z,100659.94
2022-12-31T17:51:30.767Z,100680.91
2022-12-31T17:54:52.626Z,100668.84
2022-12-31T17:58:19.831Z,100676.56
2022-12-31T18:01:43.719Z,100672.22
2022-12-31T18:05:14.722Z,100674.22
2022-12-31T18:08:37.774Z,100671.06
2022-12-31T18:12:01.704Z,100650.41
2022-12-31T18:15:25.070Z,100673.56
2022-12-31T18:18:46.790Z,100674.94
2022-12-31T18:22:08.397Z,100659.16
2022-12-31T18:25:31.403Z,100665.88
2022-12-31T18:28:53.959Z,100669.06
2022-12-31T18:32:21.139Z,100672.25
2022-12-31T18:36:08.156Z,100663.53
2022-12-31T18:39:24.671Z,100664.19
2022-12-31T18:42:47.436Z,100669.41
2022-12-31T18:46:12.157Z,100672.59
2022-12-31T18:49:33.725Z,100662.53
2022-12-31T18:52:55.515Z,100666.91
2022-12-31T18:56:19.439Z,100656.88
2022-12-31T18:59:42.839Z,100657.34
2022-12-31T19:03:05.579Z,100658.88
2022-12-31T19:06:27.537Z,100653.31
2022-12-31T19:09:53.000Z,100639.22
2022-12-31T19:13:19.824Z,100651.31
2022-12-31T19:16:43.039Z,100662.91
2022-12-31T19:20:05.605Z,100666.75
2022-12-31T19:23:27.136Z,100653.31
2022-12-31T19:26:48.993Z,100651.63
2022-12-31T19:30:20.360Z,100659.69
2022-12-31T19:33:44.065Z,100665.06
2022-12-31T19:37:05.696Z,100671.44
2022-12-31T19:40:30.325Z,100661.72
2022-12-31T19:43:51.801Z,100666.06
2022-12-31T19:47:14.158Z,100658.53
2022-12-31T19:50:36.929Z,100665.59
2022-12-31T19:54:00.932Z,100672.13
2022-12-31T19:57:22.625Z,100661.56
2022-12-31T20:00:47.955Z,100661.03
2022-12-31T20:04:12.834Z,100660.91
2022-12-31T20:07:36.005Z,100660.22
2022-12-31T20:10:59.037Z,100662.91
2022-12-31T20:14:20.446Z,100663.06
2022-12-31T20:17:42.159Z,100685.03
2022-12-31T20:21:03.988Z,100669.59
2022-12-31T20:24:27.170Z,100674.00
2022-12-31T20:27:48.736Z,100668.06
2022-12-31T20:31:12.011Z,100674.31
2022-12-31T20:34:33.544Z,100673.94
2022-12-31T20:37:55.396Z,100661.19
2022-12-31T20:41:19.902Z,100678.97
2022-12-31T20:44:41.478Z,100681.84
2022-12-31T20:48:02.560Z,100682.84
2022-12-31T20:51:25.436Z,100677.63
2022-12-31T20:54:47.343Z,100674.94
2022-12-31T20:58:10.742Z,100661.03
2022-12-31T21:02:11.218Z,100678.81
2022-12-31T21:05:14.707Z,100674.94
2022-12-31T21:08:37.090Z,100685.69
2022-12-31T21:12:15.994Z,100681.31
2022-12-31T21:15:38.916Z,100672.94
2022-12-31T21:19:01.552Z,100687.03
2022-12-31T21:22:24.184Z,100693.25
2022-12-31T21:25:46.708Z,100693.94
2022-12-31T21:29:08.164Z,100687.34
2022-12-31T21:32:31.187Z,100683.50
2022-12-31T21:35:54.011Z,100675.28
2022-12-31T21:39:16.559Z,100684.34
2022-12-31T21:42:38.261Z,100686.88
2022-12-31T21:46:04.470Z,100686.03
2022-12-31T21:49:27.463Z,100686.34
2022-12-31T21:52:49.159Z,100690.56
2022-12-31T21:56:11.497Z,100702.97
2022-12-31T22:00:09.143Z,100714.44
2022-12-31T22:03:32.241Z,100690.25
2022-12-31T22:06:55.460Z,100682.34
2022-12-31T22:10:17.464Z,100680.66
2022-12-31T22:13:39.607Z,100686.56
2022-12-31T22:17:00.995Z,100696.16
2022-12-31T22:20:27.592Z,100698.16
2022-12-31T22:23:53.236Z,100708.56
2022-12-31T22:27:28.610Z,100706.72
2022-12-31T22:30:51.399Z,100729.19
2022-12-31T22:34:12.899Z,100713.94
2022-12-31T22:41:19.590Z,100728.72
2022-12-31T22:44:41.542Z,100735.91
2022-12-31T22:48:02.799Z,100733.41
2022-12-31T22:51:24.571Z,100746.66
2022-12-31T22:54:46.182Z,100740.28
2022-12-31T22:58:09.195Z,100744.16
2022-12-31T23:01:31.006Z,100742.13
2022-12-31T23:04:52.943Z,100749.88
2022-12-31T23:08:34.500Z,100731.06
2022-12-31T23:11:56.183Z,100734.75
2022-12-31T23:15:36.459Z,100736.78
2022-12-31T23:19:15.312Z,100742.28
2022-12-31T23:22:54.079Z,100738.44
2022-12-31T23:26:15.607Z,100744.66
2022-12-31T23:29:45.655Z,100734.75
2022-12-31T23:33:15.147Z,100753.56
2022-12-31T23:36:36.847Z,100744.50
2022-12-31T23:39:58.830Z,100750.19
2022-12-31T23:43:23.166Z,100749.19
2022-12-31T23:46:45.525Z,100756.25
2022-12-31T23:50:09.771Z,100752.69
2022-12-31T23:53:31.417Z,100760.09
2022-12-31T23:56:53.241Z,100765.78
